createdAt,value
2023-01-04T00:00:17.064Z,101398.91
2023-01-04T00:02:47.902Z,101392.16
2023-01-04T00:05:18.261Z,101390.19
2023-01-04T00:07:48.833Z,101385.75
2023-01-04T00:10:19.274Z,101388.19
2023-01-04T00:12:51.572Z,101386.53
2023-01-04T00:15:21.384Z,101387.38
2023-01-04T00:17:51.365Z,101395.78
2023-01-04T00:20:21.229Z,101390.19
2023-01-04T00:22:50.788Z,101390.19
2023-01-04T00:25:21.014Z,101387.38
2023-01-04T00:27:53.438Z,101389.03
2023-01-04T00:30:23.898Z,101387.38
2023-01-04T00:32:56.745Z,101384.59
2023-01-04T00:35:45.317Z,101388.19
2023-01-04T00:38:16.054Z,101390.50
2023-01-04T00:40:46.578Z,101384.09
2023-01-04T00:43:18.535Z,101391.66
2023-01-04T00:45:48.614Z,101391.19
2023-01-04T00:48:18.709Z,101387.06
2023-01-04T00:50:49.697Z,101384.25
2023-01-04T00:53:21.244Z,101387.41
2023-01-04T00:55:51.824Z,101379.00
2023-01-04T00:58:23.984Z,101382.94
2023-01-04T01:00:54.618Z,101386.09
2023-01-04T01:03:24.891Z,101385.25
2023-01-04T01:05:55.667Z,101385.59
2023-01-04T01:08:29.142Z,101379.50
2023-01-04T01:11:06.301Z,101379.00
2023-01-04T01:13:39.864Z,101381.00
2023-01-04T01:16:14.692Z,101366.19
2023-01-04T01:18:47.566Z,101365.34
2023-01-04T01:21:21.605Z,101366.50
2023-01-04T01:23:53.495Z,101370.44
2023-01-04T01:26:26.623Z,101362.06
2023-01-04T01:28:58.245Z,101351.19
2023-01-04T01:31:30.752Z,101355.16
2023-01-04T01:34:00.995Z,101348.25
2023-01-04T01:36:31.268Z,101354.16
2023-01-04T01:39:02.007Z,101344.94
2023-01-04T01:41:35.451Z,101352.53
2023-01-04T01:44:29.656Z,101346.09
2023-01-04T01:47:00.423Z,101349.25
2023-01-04T01:49:37.837Z,101336.53
2023-01-04T01:52:13.864Z,101338.84
2023-01-04T01:54:52.041Z,101328.78
2023-01-04T01:57:27.982Z,101330.28
2023-01-04T02:00:05.822Z,101325.69
2023-01-04T02:02:37.534Z,101336.41
2023-01-04T02:05:08.345Z,101327.50
2023-01-04T02:07:40.257Z,101329.16
2023-01-04T02:10:12.007Z,101324.25
2023-01-04T02:12:42.635Z,101327.34
2023-01-04T02:15:16.274Z,101335.25
2023-01-04T02:18:00.971Z,101348.47
2023-01-04T02:20:49.074Z,101350.44
2023-01-04T02:24:03.907Z,101348.78
2023-01-04T02:27:12.850Z,101341.53
2023-01-04T02:30:42.390Z,101349.06
2023-01-04T02:33:39.559Z,101347.13
2023-01-04T02:36:22.137Z,101355.19
2023-01-04T02:39:07.630Z,101354.56
2023-01-04T02:41:46.069Z,101348.94
2023-01-04T02:44:37.718Z,101355.34
2023-01-04T02:47:13.342Z,101350.91
2023-01-04T02:50:05.114Z,101349.25
2023-01-04T02:52:36.768Z,101353.25
2023-01-04T02:55:09.961Z,101356.84
2023-01-04T02:57:54.957Z,101350.44
2023-01-04T03:01:07.072Z,101351.56
2023-01-04T03:04:08.427Z,101356.66
2023-01-04T03:06:51.500Z,101351.41
2023-01-04T03:09:28.740Z,101341.38
2023-01-04T03:12:23.626Z,101350.56
2023-01-04T03:15:02.579Z,101356.50
2023-01-04T03:17:43.009Z,101359.63
2023-01-04T03:20:18.580Z,101354.88
2023-01-04T03:23:14.378Z,101358.00
2023-01-04T03:26:09.414Z,101370.38
2023-01-04T03:29:01.268Z,101360.63
2023-01-04T03:31:59.802Z,101362.13
2023-01-04T03:34:47.339Z,101365.56
2023-01-04T03:37:26.028Z,101368.22
2023-01-04T03:40:44.438Z,101377.59
2023-01-04T03:43:38.128Z,101380.09
2023-01-04T03:46:31.551Z,101389.47
2023-01-04T03:49:13.270Z,101381.72
2023-01-04T03:51:46.777Z,101391.28
2023-01-04T03:54:24.955Z,101399.66
2023-01-04T03:57:00.672Z,101400.50
2023-01-04T03:59:31.371Z,101408.91
2023-01-04T04:02:03.163Z,101406.91
2023-01-04T04:04:50.030Z,101403.81
2023-01-04T04:07:36.795Z,101411.38
2023-01-04T04:10:08.108Z,101410.56
2023-01-04T04:12:40.346Z,101419.75
2023-01-04T04:15:11.796Z,101419.75
2023-01-04T04:17:41.629Z,101420.59
2023-01-04T04:20:14.002Z,101418.44
2023-01-04T04:22:44.222Z,101413.84
2023-01-04T04:25:15.230Z,101421.06
2023-01-04T04:27:46.813Z,101421.22
2023-01-04T04:30:17.156Z,101425.47
2023-01-04T04:32:47.610Z,101431.06
2023-01-04T04:35:18.182Z,101447.88
2023-01-04T04:37:48.697Z,101450.34
2023-01-04T04:40:32.464Z,101460.88
2023-01-04T04:43:04.269Z,101455.28
2023-01-04T04:45:34.678Z,101464.50
2023-01-04T04:48:05.323Z,101468.97
2023-01-04T04:50:36.204Z,101464.19
2023-01-04T04:53:06.517Z,101466.16
2023-01-04T04:55:36.943Z,101465.31
2023-01-04T04:58:09.760Z,101469.25
2023-01-04T05:00:43.091Z,101468.28
2023-01-04T05:03:13.279Z,101463.16
2023-01-04T05:05:43.816Z,101467.44
2023-01-04T05:08:13.995Z,101474.03
2023-01-04T05:10:44.307Z,101473.47
2023-01-04T05:13:14.886Z,101475.78
2023-01-04T05:15:48.444Z,101474.97
2023-01-04T05:18:21.625Z,101482.50
2023-01-04T05:20:52.837Z,101481.03
2023-01-04T05:23:25.824Z,101486.34
2023-01-04T05:25:59.377Z,101489.16
2023-01-04T05:28:31.838Z,101485.50
2023-01-04T05:31:00.590Z,101491.09
2023-01-04T05:33:33.585Z,101484.16
2023-01-04T05:36:06.558Z,101484.81
2023-01-04T05:38:37.735Z,101486.63
2023-01-04T05:41:28.616Z,101483.66
2023-01-04T05:44:03.493Z,101481.81
2023-01-04T05:46:34.280Z,101474.41
2023-01-04T05:49:04.175Z,101485.88
2023-01-04T05:51:34.159Z,101490.66
2023-01-04T05:54:04.651Z,101489.66
2023-01-04T05:56:35.104Z,101492.78
2023-01-04T05:59:07.612Z,101497.06
2023-01-04T06:01:37.757Z,101489.81
2023-01-04T06:04:08.083Z,101496.22
2023-01-04T06:06:38.152Z,101485.88
2023-01-04T06:09:08.902Z,101494.44
2023-01-04T06:11:39.332Z,101501.84
2023-01-04T06:14:11.214Z,101498.38
2023-01-04T06:16:41.678Z,101493.00
2023-01-04T06:19:12.254Z,101498.25
2023-01-04T06:21:42.584Z,101496.47
2023-01-04T06:24:14.597Z,101496.00
2023-01-04T06:26:44.995Z,101498.22
2023-01-04T06:29:17.762Z,101506.97
2023-01-04T06:31:49.122Z,101505.19
2023-01-04T06:34:20.395Z,101506.38
2023-01-04T06:36:53.384Z,101505.38
2023-01-04T06:39:23.361Z,101513.94
2023-01-04T06:41:53.837Z,101510.00
2023-01-04T06:44:25.354Z,101527.28
2023-01-04T06:46:55.565Z,101524.00
2023-01-04T06:49:25.695Z,101527.59
2023-01-04T06:51:56.083Z,101534.88
2023-01-04T06:54:26.511Z,101541.59
2023-01-04T06:56:56.981Z,101534.34
2023-01-04T06:59:28.956Z,101536.00
2023-01-04T07:01:59.700Z,101544.75
2023-01-04T07:04:30.429Z,101544.41
2023-01-04T07:07:00.978Z,101541.28
2023-01-04T07:09:31.525Z,101547.38
2023-01-04T07:12:03.600Z,101556.63
2023-01-04T07:14:37.058Z,101552.31
2023-01-04T07:17:07.429Z,101552.84
2023-01-04T07:19:37.907Z,101545.25
2023-01-04T07:22:08.408Z,101548.53
2023-01-04T07:24:38.832Z,101544.94
2023-01-04T07:27:08.811Z,101550.53
2023-01-04T07:29:44.305Z,101556.31
2023-01-04T07:32:14.827Z,101549.22
2023-01-04T07:34:45.113Z,101546.56
2023-01-04T07:37:16.560Z,101547.59
2023-01-04T07:39:48.915Z,101554.34
2023-01-04T07:42:20.827Z,101549.09
2023-01-04T07:44:52.635Z,101548.94
2023-01-04T07:47:23.052Z,101550.75
2023-01-04T07:49:53.326Z,101538.88
2023-01-04T07:52:23.766Z,101532.94
2023-01-04T07:54:54.062Z,101533.41
2023-01-04T07:57:24.719Z,101526.66
2023-01-04T07:59:57.395Z,101526.16
2023-01-04T08:02:28.203Z,101526.31
2023-01-04T08:04:59.867Z,101515.59
2023-01-04T08:07:31.036Z,101513.59
2023-01-04T08:10:01.108Z,101515.25
2023-01-04T08:12:31.583Z,101516.56
2023-01-04T08:15:03.864Z,101510.69
2023-01-04T08:17:33.918Z,101512.31
2023-01-04T08:20:04.522Z,101508.84
2023-01-04T08:22:34.997Z,101509.47
2023-01-04T08:25:06.455Z,101507.31
2023-01-04T08:27:37.374Z,101509.97
2023-01-04T08:30:12.848Z,101505.31
2023-01-04T08:32:43.706Z,101495.88
2023-01-04T08:35:13.997Z,101495.72
2023-01-04T08:37:44.130Z,101489.91
2023-01-04T08:40:15.565Z,101483.25
2023-01-04T08:42:46.037Z,101480.19
2023-01-04T08:45:18.497Z,101475.97
2023-01-04T08:47:48.910Z,101469.53
2023-01-04T08:50:20.933Z,101458.91
2023-01-04T08:52:51.101Z,101455.09
2023-01-04T08:55:23.455Z,101452.53
2023-01-04T08:57:54.286Z,101451.75
2023-01-04T09:00:26.936Z,101447.97
2023-01-04T09:02:57.609Z,101451.38
2023-01-04T09:05:29.380Z,101446.22
2023-01-04T09:08:01.760Z,101435.41
2023-01-04T09:10:32.168Z,101435.88
2023-01-04T09:13:03.360Z,101435.19
2023-01-04T09:15:35.896Z,101434.72
2023-01-04T09:20:59.019Z,101427.34
2023-01-04T09:23:30.009Z,101425.31
2023-01-04T09:26:04.305Z,101428.13
2023-01-04T09:28:38.196Z,101423.31
2023-01-04T09:31:12.021Z,101422.13
2023-01-04T09:34:12.952Z,101413.69
2023-01-04T09:36:34.671Z,101422.63
2023-01-04T09:39:05.585Z,101409.47
2023-01-04T09:41:41.650Z,101407.22
2023-01-04T09:44:54.320Z,101408.72
2023-01-04T09:47:35.146Z,101398.84
2023-01-04T09:50:15.068Z,101390.50
2023-01-04T09:52:59.264Z,101386.13
2023-01-04T09:55:41.022Z,101392.13
2023-01-04T09:58:27.311Z,101379.13
2023-01-04T10:01:05.260Z,101375.84
2023-01-04T10:03:41.125Z,101373.72
2023-01-04T10:06:16.182Z,101374.09
2023-01-04T10:08:47.733Z,101370.00
2023-01-04T10:11:45.962Z,101367.06
2023-01-04T10:14:44.327Z,101366.84
2023-01-04T10:18:10.278Z,101363.47
2023-01-04T10:21:33.702Z,101367.25
2023-01-04T10:24:43.507Z,101353.78
2023-01-04T10:27:35.386Z,101349.31
2023-01-04T10:30:27.587Z,101352.47
2023-01-04T10:33:12.303Z,101351.63
2023-01-04T10:35:45.238Z,101352.47
2023-01-04T10:38:22.638Z,101356.44
2023-01-04T10:40:53.300Z,101350.00
2023-01-04T10:44:11.051Z,101352.81
2023-01-04T10:46:38.766Z,101352.34
2023-01-04T10:49:17.630Z,101353.91
2023-01-04T10:51:57.515Z,101351.06
2023-01-04T10:54:41.613Z,101348.25
2023-01-04T10:57:19.563Z,101346.63
2023-01-04T10:59:56.667Z,101338.97
2023-01-04T11:02:38.388Z,101343.81
2023-01-04T11:05:21.280Z,101340.84
2023-01-04T11:07:58.653Z,101331.97
2023-01-04T11:10:38.911Z,101329.16
2023-01-04T11:13:10.806Z,101335.97
2023-01-04T11:15:43.056Z,101333.13
2023-01-04T11:18:17.561Z,101332.66
2023-01-04T11:20:48.346Z,101335.47
2023-01-04T11:23:21.105Z,101331.03
2023-01-04T11:25:59.084Z,101331.88
2023-01-04T11:28:39.295Z,101319.28
2023-01-04T11:31:24.914Z,101316.00
2023-01-04T11:34:01.717Z,101325.66
2023-01-04T11:36:41.876Z,101318.38
2023-01-04T11:39:22.379Z,101329.97
2023-01-04T11:42:22.400Z,101320.25
2023-01-04T11:45:02.485Z,101319.78
2023-01-04T11:47:33.455Z,101322.97
2023-01-04T11:50:04.297Z,101329.41
2023-01-04T11:52:38.106Z,101323.34
2023-01-04T11:55:25.142Z,101332.94
2023-01-04T11:58:10.790Z,101328.81
2023-01-04T12:00:42.383Z,101337.63
2023-01-04T12:03:18.195Z,101340.81
2023-01-04T12:05:48.657Z,101343.16
2023-01-04T12:08:33.237Z,101342.69
2023-01-04T12:11:07.093Z,101343.03
2023-01-04T12:13:40.168Z,101338.94
2023-01-04T12:16:24.793Z,101345.75
2023-01-04T12:18:56.004Z,101339.16
2023-01-04T12:21:28.929Z,101338.69
2023-01-04T12:23:59.903Z,101337.06
2023-01-04T12:26:30.492Z,101339.44
2023-01-04T12:29:44.113Z,101340.13
2023-01-04T12:32:49.332Z,101345.97
2023-01-04T12:36:07.260Z,101353.47
2023-01-04T12:39:30.430Z,101348.88
2023-01-04T12:42:29.871Z,101347.25
2023-01-04T12:45:23.619Z,101344.78
2023-01-04T12:48:12.810Z,101344.78
2023-01-04T12:51:37.290Z,101351.09
2023-01-04T12:54:32.358Z,101355.44
2023-01-04T12:57:32.110Z,101342.88
2023-01-04T13:00:12.311Z,101353.69
2023-01-04T13:02:48.563Z,101341.97
2023-01-04T13:08:28.992Z,101346.75
2023-01-04T13:11:00.586Z,101338.31
2023-01-04T13:13:46.007Z,101341.13
2023-01-04T13:16:31.158Z,101340.31
2023-01-04T13:19:04.976Z,101343.13
2023-01-04T13:21:41.811Z,101345.09
2023-01-04T13:24:25.470Z,101343.13
2023-01-04T13:26:57.182Z,101350.28
2023-01-04T13:29:30.061Z,101347.81
2023-01-04T13:32:04.976Z,101345.34
2023-01-04T13:34:38.415Z,101350.13
2023-01-04T13:37:19.537Z,101349.69
2023-01-04T13:39:51.981Z,101346.88
2023-01-04T13:42:31.356Z,101352.03
2023-01-04T13:45:36.459Z,101348.72
2023-01-04T13:48:18.648Z,101354.72
2023-01-04T13:51:02.232Z,101359.03
2023-01-04T13:53:34.940Z,101356.22
2023-01-04T13:56:06.733Z,101363.84
2023-01-04T13:58:38.273Z,101363.84
2023-01-04T14:01:18.248Z,101370.28
2023-01-04T14:03:54.948Z,101361.03
2023-01-04T14:06:30.929Z,101371.47
2023-01-04T14:09:19.141Z,101361.72
2023-01-04T14:12:08.297Z,101359.25
2023-01-04T14:14:54.098Z,101366.41
2023-01-04T14:17:40.535Z,101368.38
2023-01-04T14:20:38.780Z,101362.28
2023-01-04T14:23:36.008Z,101368.25
2023-01-04T14:26:06.575Z,101373.09
2023-01-04T14:28:49.446Z,101365.44
2023-01-04T14:31:33.133Z,101368.63
2023-01-04T14:34:14.849Z,101366.63
2023-01-04T14:36:47.993Z,101366.97
2023-01-04T14:39:35.804Z,101372.59
2023-01-04T14:42:06.703Z,101376.56
2023-01-04T14:44:41.578Z,101373.28
2023-01-04T14:47:14.353Z,101378.91
2023-01-04T14:49:44.466Z,101373.66
2023-01-04T14:52:26.118Z,101381.25
2023-01-04T14:54:56.594Z,101384.75
2023-01-04T14:57:27.198Z,101392.34
2023-01-04T14:59:58.240Z,101387.09
2023-01-04T15:02:30.803Z,101388.25
2023-01-04T15:05:01.484Z,101381.84
2023-01-04T15:07:40.269Z,101381.84
2023-01-04T15:10:24.151Z,101393.41
2023-01-04T15:12:55.591Z,101386.44
2023-01-04T15:15:26.525Z,101392.44
2023-01-04T15:17:56.881Z,101394.41
2023-01-04T15:20:27.383Z,101397.56
2023-01-04T15:22:59.935Z,101398.72
2023-01-04T15:25:30.360Z,101411.13
2023-01-04T15:28:00.950Z,101412.66
2023-01-04T15:30:35.004Z,101406.19
2023-01-04T15:33:05.984Z,101408.88
2023-01-04T15:35:36.234Z,101414.84
2023-01-04T15:38:14.371Z,101420.78
2023-01-04T15:40:51.448Z,101421.50
2023-01-04T15:43:20.188Z,101419.03
2023-01-04T15:45:50.673Z,101419.38
2023-01-04T15:48:21.113Z,101427.00
2023-01-04T15:50:51.537Z,101418.88
2023-01-04T15:53:23.602Z,101420.53
2023-01-04T15:55:54.725Z,101419.25
2023-01-04T15:58:24.829Z,101425.66
2023-01-04T16:01:01.236Z,101433.28
2023-01-04T16:03:37.693Z,101432.81
2023-01-04T16:06:10.639Z,101440.44
2023-01-04T16:08:43.966Z,101435.13
2023-01-04T16:11:17.997Z,101437.94
2023-01-04T16:13:50.722Z,101445.56
2023-01-04T16:16:23.293Z,101450.34
2023-01-04T16:18:56.435Z,101449.16
2023-01-04T16:21:30.101Z,101450.81
2023-01-04T16:24:20.802Z,101450.34
2023-01-04T16:26:56.174Z,101457.47
2023-01-04T16:29:26.352Z,101449.88
2023-01-04T16:31:57.139Z,101455.50
2023-01-04T16:34:27.517Z,101452.69
2023-01-04T16:36:57.940Z,101455.50
2023-01-04T16:42:23.144Z,101459.78
2023-01-04T16:44:53.358Z,101467.41
2023-01-04T16:47:23.842Z,101470.22
2023-01-04T16:49:55.634Z,101463.78
2023-01-04T16:52:28.024Z,101463.78
2023-01-04T16:55:00.545Z,101463.78
2023-01-04T16:57:30.480Z,101470.22
2023-01-04T17:00:00.785Z,101469.41
2023-01-04T17:02:31.263Z,101462.94
2023-01-04T17:05:01.483Z,101460.13
2023-01-04T17:07:33.495Z,101460.97
2023-01-04T17:10:06.957Z,101464.94
2023-01-04T17:12:47.470Z,101465.28
2023-01-04T17:18:12.792Z,101469.25
2023-01-04T17:20:43.353Z,101474.84
2023-01-04T17:23:15.795Z,101469.25
2023-01-04T17:25:48.308Z,101471.25
2023-01-04T17:28:24.717Z,101473.22
2023-01-04T17:30:55.693Z,101477.22
2023-01-04T17:33:27.107Z,101477.22
2023-01-04T17:35:58.189Z,101471.09
2023-01-04T17:38:28.631Z,101471.44
2023-01-04T17:41:10.424Z,101468.16
2023-01-04T17:43:42.189Z,101473.28
2023-01-04T17:46:20.756Z,101481.72
2023-01-04T17:49:21.210Z,101484.03
2023-01-04T17:51:44.166Z,101479.09
2023-01-04T17:54:14.583Z,101483.91
2023-01-04T17:56:47.043Z,101483.41
2023-01-04T17:59:18.990Z,101489.38
2023-01-04T18:01:49.715Z,101482.91
2023-01-04T18:04:20.812Z,101485.25
2023-01-04T18:06:51.347Z,101490.03
2023-01-04T18:09:24.427Z,101491.56
2023-01-04T18:11:56.761Z,101481.84
2023-01-04T18:14:28.020Z,101488.94
2023-01-04T18:16:58.933Z,101488.44
2023-01-04T18:19:31.606Z,101483.50
2023-01-04T18:22:02.431Z,101482.19
2023-01-04T18:24:40.077Z,101482.84
2023-01-04T18:27:25.013Z,101489.97
2023-01-04T18:29:57.557Z,101483.03
2023-01-04T18:32:29.607Z,101487.69
2023-01-04T18:35:04.896Z,101489.19
2023-01-04T18:37:36.018Z,101494.63
2023-01-04T18:40:07.539Z,101495.00
2023-01-04T18:42:42.126Z,101499.28
2023-01-04T18:45:13.909Z,101512.84
2023-01-04T18:47:47.905Z,101503.91
2023-01-04T18:50:19.231Z,101502.28
2023-01-04T18:52:49.198Z,101501.47
2023-01-04T18:55:19.646Z,101511.03
2023-01-04T18:57:51.734Z,101509.72
2023-01-04T19:00:23.426Z,101505.59
2023-01-04T19:02:54.024Z,101515.50
2023-01-04T19:05:28.039Z,101520.63
2023-01-04T19:07:58.472Z,101516.22
2023-01-04T19:10:28.439Z,101515.72
2023-01-04T19:13:00.943Z,101517.19
2023-01-04T19:15:31.556Z,101519.53
2023-01-04T19:18:01.551Z,101519.84
2023-01-04T19:20:31.724Z,101508.16
2023-01-04T19:23:01.595Z,101511.78
2023-01-04T19:25:31.256Z,101515.38
2023-01-04T19:28:02.950Z,101507.31
2023-01-04T19:30:33.269Z,101516.06
2023-01-04T19:33:03.839Z,101513.28
2023-01-04T19:35:34.442Z,101519.19
2023-01-04T19:38:04.859Z,101525.16
2023-01-04T19:40:35.472Z,101526.31
2023-01-04T19:43:08.195Z,101526.66
2023-01-04T19:45:42.103Z,101525.81
2023-01-04T19:48:12.200Z,101523.69
2023-01-04T19:50:41.878Z,101527.66
2023-01-04T19:53:13.368Z,101523.81
2023-01-04T19:55:43.830Z,101518.88
2023-01-04T19:58:18.119Z,101525.97
2023-01-04T20:00:54.612Z,101525.00
2023-01-04T20:03:26.429Z,101526.16
2023-01-04T20:05:57.947Z,101520.06
2023-01-04T20:08:28.401Z,101519.56
2023-01-04T20:11:01.262Z,101520.22
2023-01-04T20:13:35.919Z,101518.09
2023-01-04T20:16:07.276Z,101519.59
2023-01-04T20:18:38.337Z,101513.81
2023-01-04T20:21:14.339Z,101511.34
2023-01-04T20:23:44.641Z,101515.66
2023-01-04T20:26:18.394Z,101518.75
2023-01-04T20:28:50.791Z,101518.75
2023-01-04T20:31:22.847Z,101517.94
2023-01-04T20:33:53.407Z,101517.94
2023-01-04T20:36:27.067Z,101511.53
2023-01-04T20:38:58.577Z,101519.44
2023-01-04T20:41:32.910Z,101524.19
2023-01-04T20:44:04.468Z,101524.19
2023-01-04T20:46:35.261Z,101516.94
2023-01-04T20:49:06.011Z,101507.72
2023-01-04T20:51:36.012Z,101504.94
2023-01-04T20:54:06.600Z,101512.50
2023-01-04T20:56:39.166Z,101510.53
2023-01-04T20:59:11.172Z,101512.50
2023-01-04T21:01:42.551Z,101507.38
2023-01-04T21:04:16.244Z,101507.72
2023-01-04T21:06:46.698Z,101502.47
2023-01-04T21:09:17.227Z,101499.16
2023-01-04T21:11:48.282Z,101500.66
2023-01-04T21:14:20.598Z,101503.28
2023-01-04T21:16:51.059Z,101507.25
2023-01-04T21:19:22.830Z,101503.63
2023-01-04T21:21:52.625Z,101505.63
2023-01-04T21:24:23.406Z,101502.81
2023-01-04T21:26:53.426Z,101508.41
2023-01-04T21:29:26.421Z,101502.47
2023-01-04T21:31:57.020Z,101496.88
2023-01-04T21:34:28.549Z,101493.25
2023-01-04T21:36:59.068Z,101490.75
2023-01-04T21:39:29.625Z,101494.41
2023-01-04T21:41:59.654Z,101493.06
2023-01-04T21:44:32.999Z,101486.66
2023-01-04T21:47:04.280Z,101490.09
2023-01-04T21:49:36.122Z,101495.72
2023-01-04T21:52:06.636Z,101490.09
2023-01-04T21:54:36.500Z,101493.25
2023-01-04T21:57:08.295Z,101487.50
2023-01-04T21:59:39.875Z,101488.13
2023-01-04T22:02:10.470Z,101483.69
2023-01-04T22:04:41.112Z,101489.63
2023-01-04T22:07:11.607Z,101486.34
2023-01-04T22:09:42.171Z,101487.13
2023-01-04T22:12:12.820Z,101489.47
2023-01-04T22:14:45.159Z,101483.88
2023-01-04T22:17:16.049Z,101488.63
2023-01-04T22:19:45.868Z,101488.63
2023-01-04T22:22:15.777Z,101487.81
2023-01-04T22:24:45.516Z,101487.81
2023-01-04T22:27:15.124Z,101480.88
2023-01-04T22:29:47.152Z,101483.19
2023-01-04T22:32:17.620Z,101483.50
2023-01-04T22:34:48.171Z,101474.28
2023-01-04T22:37:18.627Z,101479.38
2023-01-04T22:39:48.872Z,101486.97
2023-01-04T22:42:18.827Z,101490.06
2023-01-04T22:44:51.782Z,101492.06
2023-01-04T22:47:22.109Z,101484.00
2023-01-04T22:49:52.508Z,101485.47
2023-01-04T22:52:22.969Z,101484.66
2023-01-04T22:54:53.116Z,101484.16
2023-01-04T22:57:23.670Z,101488.09
2023-01-04T22:59:56.134Z,101490.41
2023-01-04T23:02:26.886Z,101489.09
2023-01-04T23:04:56.748Z,101490.25
2023-01-04T23:07:26.855Z,101491.38
2023-01-04T23:09:59.784Z,101499.28
2023-01-04T23:12:31.890Z,101496.00
2023-01-04T23:15:05.351Z,101503.56
2023-01-04T23:17:35.814Z,101508.34
2023-01-04T23:20:10.417Z,101508.66
2023-01-04T23:22:41.121Z,101506.19
2023-01-04T23:25:12.943Z,101514.94
2023-01-04T23:27:43.140Z,101504.88
2023-01-04T23:30:18.232Z,101505.19
2023-01-04T23:32:48.649Z,101502.72
2023-01-04T23:35:19.186Z,101505.88
2023-01-04T23:37:49.544Z,101507.00
2023-01-04T23:40:20.167Z,101499.75
2023-01-04T23:42:53.221Z,101499.75
2023-01-04T23:45:26.275Z,101499.75
2023-01-04T23:47:56.905Z,101500.09
2023-01-04T23:50:27.124Z,101499.25
2023-01-04T23:52:57.446Z,101494.81
2023-01-04T23:55:27.952Z,101492.34
2023-01-04T23:57:58.128Z,101497.94
